Sundown, Texas
Current Conditions -  °F | °C
As of 5:53 PM on Saturday 22 Nov 2014 (Local Time) from KLBB Reporting Station
Broken Clouds Broken Clouds  
Wind Chill: 59°   Ceiling: 25000
Heat Index: 59°   Visibility: 9mi
Dew Point: 48°   Wind: 10mph
Humidity: 67%   Direction: 170°S
Pressure: 29.75"   Gusts: NA
Location:  33.46°N, 102.49°W
Report Text: KLBB 222353Z 17009KT 9SM FEW180 SCT220 BKN250 15/09 A2975 RMK AO2 SLP053 T01500089 10194 20117 55011
Loading
Personal Weather Stations






























Interactive Weather Map New forecast layout! Learn more

10-Day Weather Forecast

Advertisements
Track Severe Weather on mobile